createdAt,value
2023-05-19T00:01:00.447Z,2.80
2023-05-19T00:03:27.393Z,2.47
2023-05-19T00:05:54.443Z,2.90
2023-05-19T00:08:24.544Z,3.03
2023-05-19T00:10:51.184Z,3.10
2023-05-19T00:13:17.877Z,2.78
2023-05-19T00:15:44.628Z,2.58
2023-05-19T00:18:14.010Z,3.13
2023-05-19T00:20:40.769Z,2.42
2023-05-19T00:23:07.251Z,3.10
2023-05-19T00:25:33.733Z,3.00
2023-05-19T00:28:00.629Z,2.97
2023-05-19T00:30:27.317Z,2.40
2023-05-19T00:32:53.924Z,2.80
2023-05-19T00:35:20.421Z,2.83
2023-05-19T00:37:47.089Z,2.95
2023-05-19T00:40:13.668Z,2.65
2023-05-19T00:42:41.213Z,2.83
2023-05-19T00:45:08.227Z,3.10
2023-05-19T00:47:34.875Z,2.97
2023-05-19T00:50:01.345Z,2.70
2023-05-19T00:52:28.217Z,2.75
2023-05-19T00:54:55.677Z,3.20
2023-05-19T00:57:22.324Z,3.17
2023-05-19T00:59:49.069Z,2.80
2023-05-19T01:02:15.651Z,3.33
2023-05-19T01:04:44.793Z,2.72
2023-05-19T01:07:12.505Z,2.75
2023-05-19T01:09:39.427Z,3.15
2023-05-19T01:12:06.432Z,2.60
2023-05-19T01:14:32.978Z,2.60
2023-05-19T01:17:23.688Z,3.25
2023-05-19T01:20:02.141Z,2.63
2023-05-19T01:23:01.012Z,2.63
2023-05-19T01:26:04.472Z,2.80
2023-05-19T01:28:48.634Z,3.45
2023-05-19T01:31:16.884Z,2.28
2023-05-19T01:33:44.424Z,2.60
2023-05-19T01:36:12.462Z,2.88
2023-05-19T01:38:40.044Z,2.93
2023-05-19T01:41:07.500Z,2.88
2023-05-19T01:43:35.933Z,3.05
2023-05-19T01:46:03.271Z,2.97
2023-05-19T01:48:30.945Z,3.15
2023-05-19T01:50:57.706Z,3.00
2023-05-19T01:53:24.670Z,3.08
2023-05-19T01:55:53.548Z,2.72
2023-05-19T01:58:42.012Z,3.10
2023-05-19T02:01:26.851Z,3.17
2023-05-19T02:03:56.247Z,3.03
2023-05-19T02:06:38.108Z,2.88
2023-05-19T02:09:33.159Z,3.20
2023-05-19T02:12:06.149Z,2.70
2023-05-19T02:14:45.351Z,3.08
2023-05-19T02:17:14.683Z,2.50
2023-05-19T02:19:42.583Z,2.97
2023-05-19T02:22:09.111Z,2.90
2023-05-19T02:24:37.583Z,3.35
2023-05-19T02:27:04.233Z,2.65
2023-05-19T02:29:30.772Z,2.97
2023-05-19T02:31:57.280Z,2.72
2023-05-19T02:34:23.766Z,3.20
2023-05-19T02:36:50.642Z,2.50
2023-05-19T02:39:17.199Z,2.90
2023-05-19T02:41:43.633Z,2.97
2023-05-19T02:44:10.115Z,2.92
2023-05-19T02:46:36.591Z,2.90
2023-05-19T02:49:03.057Z,3.28
2023-05-19T02:51:29.587Z,3.47
2023-05-19T02:53:56.070Z,3.33
2023-05-19T02:56:22.541Z,2.83
2023-05-19T02:58:49.031Z,3.13
2023-05-19T03:01:15.873Z,3.40
2023-05-19T03:03:42.437Z,3.55
2023-05-19T03:06:09.387Z,3.00
2023-05-19T03:08:36.431Z,3.20
2023-05-19T03:11:03.671Z,3.28
2023-05-19T03:13:30.191Z,3.42
2023-05-19T03:15:58.749Z,2.85
2023-05-19T03:18:26.539Z,3.37
2023-05-19T03:20:56.542Z,3.47
2023-05-19T03:23:23.133Z,3.70
2023-05-19T03:25:49.551Z,3.20
2023-05-19T03:28:17.175Z,3.45
2023-05-19T03:30:43.619Z,3.30
2023-05-19T03:33:10.282Z,2.90
2023-05-19T03:35:36.974Z,3.70
2023-05-19T03:38:03.478Z,3.42
2023-05-19T03:40:30.100Z,3.05
2023-05-19T03:42:56.797Z,3.93
2023-05-19T03:45:23.338Z,3.58
2023-05-19T03:47:49.809Z,3.13
2023-05-19T03:50:16.279Z,3.03
2023-05-19T03:52:45.465Z,3.08
2023-05-19T03:55:12.589Z,3.77
2023-05-19T03:57:39.017Z,2.85
2023-05-19T04:00:06.268Z,2.95
2023-05-19T04:02:32.731Z,3.45
2023-05-19T04:04:59.268Z,3.42
2023-05-19T04:07:25.820Z,3.80
2023-05-19T04:09:52.229Z,3.75
2023-05-19T04:12:18.714Z,3.72
2023-05-19T04:14:45.168Z,3.70
2023-05-19T04:17:12.018Z,3.40
2023-05-19T04:19:38.455Z,3.50
2023-05-19T04:22:05.059Z,3.22
2023-05-19T04:24:31.803Z,3.65
2023-05-19T04:27:02.409Z,3.63
2023-05-19T04:29:29.547Z,3.58
2023-05-19T04:31:57.198Z,3.90
2023-05-19T04:34:23.604Z,3.50
2023-05-19T04:36:53.115Z,3.90
2023-05-19T04:39:19.997Z,3.30
2023-05-19T04:41:46.444Z,3.58
2023-05-19T04:44:13.556Z,3.70
2023-05-19T04:46:40.111Z,4.10
2023-05-19T04:49:06.645Z,4.00
2023-05-19T04:51:33.102Z,3.80
2023-05-19T04:53:59.550Z,4.13
2023-05-19T04:56:27.450Z,4.17
2023-05-19T04:58:53.975Z,4.22
2023-05-19T05:01:22.688Z,3.67
2023-05-19T05:03:49.313Z,4.18
2023-05-19T05:06:16.351Z,4.05
2023-05-19T05:08:42.825Z,4.10
2023-05-19T05:11:09.762Z,3.67
2023-05-19T05:13:36.390Z,4.25
2023-05-19T05:16:06.464Z,4.75
2023-05-19T05:18:33.733Z,4.32
2023-05-19T05:21:00.713Z,4.00
2023-05-19T05:23:27.723Z,4.10
2023-05-19T05:25:54.350Z,3.53
2023-05-19T05:28:21.019Z,4.18
2023-05-19T05:30:47.544Z,4.28
2023-05-19T05:33:14.209Z,4.60
2023-05-19T05:35:40.918Z,4.20
2023-05-19T05:38:07.361Z,4.18
2023-05-19T05:40:33.840Z,4.18
2023-05-19T05:43:00.266Z,4.95
2023-05-19T05:45:26.781Z,3.93
2023-05-19T05:47:53.650Z,4.15
2023-05-19T05:50:20.404Z,4.50
2023-05-19T05:52:47.931Z,4.32
2023-05-19T05:55:17.492Z,4.95
2023-05-19T05:57:44.093Z,4.00
2023-05-19T06:00:15.539Z,5.13
2023-05-19T06:02:47.397Z,4.28
2023-05-19T06:05:14.132Z,5.00
2023-05-19T06:07:41.176Z,4.55
2023-05-19T06:10:09.044Z,4.70
2023-05-19T06:12:36.126Z,4.65
2023-05-19T06:15:03.297Z,4.25
2023-05-19T06:17:29.832Z,4.55
2023-05-19T06:19:56.298Z,4.63
2023-05-19T06:22:22.727Z,4.80
2023-05-19T06:24:49.175Z,5.25
2023-05-19T06:27:15.721Z,4.63
2023-05-19T06:29:42.270Z,4.30
2023-05-19T06:32:08.717Z,4.85
2023-05-19T06:34:35.616Z,5.17
2023-05-19T06:37:02.426Z,4.60
2023-05-19T06:39:28.936Z,4.03
2023-05-19T06:41:55.441Z,4.90
2023-05-19T06:44:22.530Z,3.92
2023-05-19T06:46:49.022Z,4.40
2023-05-19T06:49:15.664Z,4.70
2023-05-19T06:51:42.092Z,4.80
2023-05-19T06:54:11.037Z,3.72
2023-05-19T06:56:37.500Z,4.50
2023-05-19T06:59:04.127Z,3.63
2023-05-19T07:01:31.045Z,4.88
2023-05-19T07:03:57.748Z,4.05
2023-05-19T07:06:24.251Z,4.82
2023-05-19T07:08:50.824Z,4.20
2023-05-19T07:11:17.762Z,4.17
2023-05-19T07:13:44.214Z,3.88
2023-05-19T07:16:10.680Z,4.55
2023-05-19T07:18:37.222Z,4.22
2023-05-19T07:21:03.823Z,3.67
2023-05-19T07:23:30.258Z,3.80
2023-05-19T07:25:56.914Z,3.60
2023-05-19T07:28:23.489Z,3.50
2023-05-19T07:30:49.978Z,4.20
2023-05-19T07:33:16.482Z,3.58
2023-05-19T07:35:43.060Z,3.43
2023-05-19T07:38:09.593Z,3.40
2023-05-19T07:40:36.094Z,3.35
2023-05-19T07:43:02.516Z,3.22
2023-05-19T07:45:28.992Z,3.08
2023-05-19T07:47:55.531Z,3.20
2023-05-19T07:50:22.380Z,3.00
2023-05-19T07:52:48.905Z,3.22
2023-05-19T07:55:16.528Z,3.03
2023-05-19T07:57:42.959Z,2.70
2023-05-19T08:00:11.923Z,2.73
2023-05-19T08:02:38.449Z,2.65
2023-05-19T08:05:05.510Z,2.47
2023-05-19T08:07:31.950Z,2.67
2023-05-19T08:09:58.408Z,2.38
2023-05-19T08:12:24.854Z,2.10
2023-05-19T08:14:52.453Z,1.55
2023-05-19T08:17:19.175Z,1.92
2023-05-19T08:19:45.915Z,1.90
2023-05-19T08:22:12.403Z,1.70
2023-05-19T08:24:39.295Z,1.73
2023-05-19T08:27:06.780Z,1.88
2023-05-19T08:29:33.222Z,2.22
2023-05-19T08:32:00.336Z,1.73
2023-05-19T08:34:26.860Z,1.67
2023-05-19T08:36:53.529Z,1.80
2023-05-19T08:39:24.201Z,1.80
2023-05-19T08:41:50.729Z,2.05
2023-05-19T08:44:18.909Z,1.50
2023-05-19T08:46:49.974Z,1.52
2023-05-19T08:49:18.179Z,1.80
2023-05-19T08:51:56.216Z,1.88
2023-05-19T08:54:29.296Z,1.60
2023-05-19T08:56:58.739Z,1.63
2023-05-19T08:59:25.641Z,1.38
2023-05-19T09:01:54.883Z,1.67
2023-05-19T09:04:22.251Z,1.80
2023-05-19T09:06:50.295Z,1.23
2023-05-19T09:09:17.328Z,1.50
2023-05-19T09:11:46.770Z,2.03
2023-05-19T09:14:13.179Z,1.80
2023-05-19T09:16:40.294Z,2.00
2023-05-19T09:19:15.494Z,1.45
2023-05-19T09:21:42.127Z,1.90
2023-05-19T09:24:09.875Z,2.10
2023-05-19T09:26:41.116Z,2.67
2023-05-19T09:29:15.427Z,1.77
2023-05-19T09:32:08.565Z,1.63
2023-05-19T09:34:35.017Z,1.95
2023-05-19T09:37:01.518Z,1.85
2023-05-19T09:39:28.817Z,2.03
2023-05-19T09:41:58.779Z,2.25
2023-05-19T09:44:30.539Z,2.55
2023-05-19T09:46:58.608Z,1.90
2023-05-19T09:49:31.313Z,1.70
2023-05-19T09:52:07.522Z,1.53
2023-05-19T09:54:34.446Z,1.83
2023-05-19T09:57:03.513Z,2.42
2023-05-19T09:59:33.514Z,2.20
2023-05-19T10:02:01.319Z,2.20
2023-05-19T10:04:29.507Z,1.90
2023-05-19T10:06:59.457Z,1.67
2023-05-19T10:09:27.966Z,1.77
2023-05-19T10:11:56.562Z,2.30
2023-05-19T10:14:32.070Z,2.00
2023-05-19T10:16:59.694Z,2.03
2023-05-19T10:19:28.764Z,1.52
2023-05-19T10:21:56.045Z,1.40
2023-05-19T10:24:22.533Z,2.00
2023-05-19T10:26:55.043Z,2.33
2023-05-19T10:29:29.414Z,2.30
2023-05-19T10:31:59.123Z,1.45
2023-05-19T10:34:31.730Z,1.80
2023-05-19T10:37:31.918Z,2.63
2023-05-19T10:39:58.827Z,2.20
2023-05-19T10:42:36.725Z,2.30
2023-05-19T10:45:20.251Z,1.90
2023-05-19T10:47:46.866Z,1.98
2023-05-19T10:50:13.618Z,2.30
2023-05-19T10:52:40.683Z,2.00
2023-05-19T10:55:08.754Z,1.93
2023-05-19T10:57:35.583Z,2.00
2023-05-19T11:00:27.995Z,2.00
2023-05-19T11:02:57.900Z,2.50
2023-05-19T11:05:29.435Z,2.10
2023-05-19T11:08:05.003Z,2.27
2023-05-19T11:10:31.946Z,1.90
2023-05-19T11:12:58.670Z,2.05
2023-05-19T11:15:28.701Z,1.30
2023-05-19T11:17:55.635Z,2.05
2023-05-19T11:20:24.570Z,2.10
2023-05-19T11:23:06.797Z,2.08
2023-05-19T11:25:44.215Z,1.98
2023-05-19T11:28:13.263Z,1.73
2023-05-19T11:30:42.738Z,2.10
2023-05-19T11:33:13.742Z,1.90
2023-05-19T11:35:41.017Z,1.95
2023-05-19T11:38:07.573Z,1.52
2023-05-19T11:40:34.073Z,2.15
2023-05-19T11:43:01.874Z,1.70
2023-05-19T11:45:31.610Z,1.47
2023-05-19T11:48:02.701Z,2.35
2023-05-19T11:50:31.429Z,1.88
2023-05-19T11:53:00.305Z,1.88
2023-05-19T11:55:27.438Z,1.73
2023-05-19T11:58:03.924Z,1.30
2023-05-19T12:00:39.261Z,1.70
2023-05-19T12:03:06.564Z,1.77
2023-05-19T12:05:39.976Z,1.90
2023-05-19T12:08:08.829Z,1.50
2023-05-19T12:10:35.848Z,1.70
2023-05-19T12:13:03.084Z,1.70
2023-05-19T12:15:31.670Z,1.50
2023-05-19T12:18:00.290Z,1.90
2023-05-19T12:20:28.591Z,1.40
2023-05-19T12:22:56.280Z,2.00
2023-05-19T12:25:23.480Z,1.40
2023-05-19T12:27:52.592Z,1.70
2023-05-19T12:30:26.579Z,1.95
2023-05-19T12:32:54.378Z,2.20
2023-05-19T12:35:23.257Z,1.70
2023-05-19T12:37:50.650Z,2.00
2023-05-19T12:40:17.141Z,1.80
2023-05-19T12:42:48.734Z,1.88
2023-05-19T12:45:15.358Z,2.47
2023-05-19T12:47:42.014Z,2.37
2023-05-19T12:50:10.260Z,2.30
2023-05-19T12:52:48.145Z,1.63
2023-05-19T12:55:16.635Z,2.10
2023-05-19T12:57:45.013Z,2.20
2023-05-19T13:00:22.956Z,2.57
2023-05-19T13:03:07.025Z,2.50
2023-05-19T13:05:36.971Z,2.53
2023-05-19T13:08:08.553Z,2.30
2023-05-19T13:10:37.200Z,2.50
2023-05-19T13:13:04.372Z,2.30
2023-05-19T13:15:34.445Z,2.30
2023-05-19T13:18:09.118Z,2.20
2023-05-19T13:20:37.368Z,2.70
2023-05-19T13:23:04.797Z,2.35
2023-05-19T13:25:32.788Z,2.20
2023-05-19T13:28:01.318Z,2.40
2023-05-19T13:30:28.290Z,2.00
2023-05-19T13:32:54.806Z,2.30
2023-05-19T13:35:21.363Z,2.08
2023-05-19T13:37:48.964Z,2.60
2023-05-19T13:40:16.999Z,2.05
2023-05-19T13:42:43.667Z,1.90
2023-05-19T13:45:10.308Z,1.60
2023-05-19T13:47:37.629Z,2.10
2023-05-19T13:50:04.971Z,2.00
2023-05-19T13:52:31.489Z,2.40
2023-05-19T13:54:57.924Z,1.92
2023-05-19T13:57:26.251Z,2.65
2023-05-19T14:00:01.786Z,2.05
2023-05-19T14:02:30.507Z,2.03
2023-05-19T14:04:57.526Z,2.03
2023-05-19T14:07:24.247Z,2.80
2023-05-19T14:09:51.952Z,2.03
2023-05-19T14:12:18.676Z,1.95
2023-05-19T14:14:45.719Z,1.90
2023-05-19T14:17:12.178Z,2.13
2023-05-19T14:19:38.619Z,2.03
2023-05-19T14:22:05.199Z,2.05
2023-05-19T14:24:31.757Z,1.98
2023-05-19T14:26:58.200Z,1.87
2023-05-19T14:29:24.591Z,2.15
2023-05-19T14:31:51.070Z,1.60
2023-05-19T14:34:21.040Z,1.80
2023-05-19T14:36:49.027Z,1.70
2023-05-19T14:39:15.734Z,1.43
2023-05-19T14:41:42.199Z,2.40
2023-05-19T14:44:11.690Z,2.20
2023-05-19T14:46:38.191Z,1.85
2023-05-19T14:49:06.517Z,2.92
2023-05-19T14:51:33.058Z,2.10
2023-05-19T14:54:00.480Z,2.20
2023-05-19T14:56:27.076Z,2.20
2023-05-19T14:58:53.586Z,2.20
2023-05-19T15:01:20.076Z,2.20
2023-05-19T15:03:46.775Z,2.00
2023-05-19T15:06:13.282Z,2.17
2023-05-19T15:08:41.082Z,1.73
2023-05-19T15:11:07.904Z,2.47
2023-05-19T15:13:34.410Z,1.90
2023-05-19T15:16:15.383Z,1.93
2023-05-19T15:18:42.494Z,1.80
2023-05-19T15:21:08.949Z,1.40
2023-05-19T15:23:35.410Z,1.55
2023-05-19T15:26:01.949Z,1.40
2023-05-19T15:28:28.388Z,2.00
2023-05-19T15:30:54.920Z,2.00
2023-05-19T15:33:21.314Z,1.75
2023-05-19T15:35:51.583Z,1.98
2023-05-19T15:38:21.266Z,2.47
2023-05-19T15:40:47.806Z,1.90
2023-05-19T15:43:14.750Z,1.85
2023-05-19T15:45:41.461Z,2.20
2023-05-19T15:48:08.357Z,2.00
2023-05-19T15:50:35.566Z,1.90
2023-05-19T15:53:02.381Z,1.90
2023-05-19T15:55:28.901Z,1.88
2023-05-19T15:57:55.320Z,1.70
2023-05-19T16:00:21.754Z,1.90
2023-05-19T16:02:48.302Z,2.05
2023-05-19T16:05:14.859Z,1.80
2023-05-19T16:07:42.104Z,2.17
2023-05-19T16:10:09.085Z,2.38
2023-05-19T16:12:36.638Z,1.92
2023-05-19T16:15:03.441Z,2.05
2023-05-19T16:17:29.956Z,2.00
2023-05-19T16:19:56.574Z,2.15
2023-05-19T16:22:24.809Z,2.20
2023-05-19T16:24:52.280Z,1.90
2023-05-19T16:27:18.909Z,2.13
2023-05-19T16:29:45.414Z,2.20
2023-05-19T16:32:12.326Z,2.00
2023-05-19T16:34:38.882Z,2.13
2023-05-19T16:37:05.500Z,1.92
2023-05-19T16:39:32.023Z,1.95
2023-05-19T16:41:58.449Z,1.93
2023-05-19T16:44:25.779Z,1.85
2023-05-19T16:46:52.224Z,2.20
2023-05-19T16:49:18.727Z,1.95
2023-05-19T16:51:46.206Z,2.40
2023-05-19T16:54:13.920Z,2.20
2023-05-19T16:56:40.429Z,2.40
2023-05-19T16:59:07.715Z,2.10
2023-05-19T17:01:34.206Z,1.90
2023-05-19T17:04:00.712Z,2.35
2023-05-19T17:06:27.200Z,2.50
2023-05-19T17:08:53.738Z,2.25
2023-05-19T17:11:20.200Z,2.28
2023-05-19T17:13:46.918Z,2.50
2023-05-19T17:16:13.512Z,1.80
2023-05-19T17:18:40.085Z,2.10
2023-05-19T17:21:06.709Z,2.30
2023-05-19T17:23:33.227Z,2.30
2023-05-19T17:25:59.770Z,2.25
2023-05-19T17:28:26.192Z,2.20
2023-05-19T17:30:52.627Z,2.20
2023-05-19T17:33:19.235Z,2.15
2023-05-19T17:35:45.711Z,2.05
2023-05-19T17:38:12.142Z,2.20
2023-05-19T17:40:40.673Z,2.28
2023-05-19T17:43:08.673Z,2.20
2023-05-19T17:45:35.118Z,2.38
2023-05-19T17:48:01.776Z,2.00
2023-05-19T17:50:28.554Z,2.17
2023-05-19T17:52:56.127Z,2.53
2023-05-19T17:55:24.765Z,2.70
2023-05-19T17:57:51.383Z,2.22
2023-05-19T18:00:18.602Z,2.30
2023-05-19T18:02:45.411Z,2.10
2023-05-19T18:05:12.686Z,1.63
2023-05-19T18:07:40.209Z,2.20
2023-05-19T18:10:08.205Z,2.08
2023-05-19T18:12:34.703Z,1.70
2023-05-19T18:15:01.283Z,2.55
2023-05-19T18:17:27.870Z,2.65
2023-05-19T18:19:54.662Z,2.80
2023-05-19T18:22:21.258Z,2.30
2023-05-19T18:24:47.707Z,2.05
2023-05-19T18:27:14.134Z,2.22
2023-05-19T18:29:40.554Z,2.13
2023-05-19T18:32:07.418Z,2.47
2023-05-19T18:34:33.945Z,1.83
2023-05-19T18:37:00.377Z,2.55
2023-05-19T18:39:29.163Z,2.17
2023-05-19T18:41:55.932Z,2.70
2023-05-19T18:44:22.349Z,2.70
2023-05-19T18:46:48.814Z,3.88
2023-05-19T18:49:15.680Z,3.78
2023-05-19T18:51:42.496Z,5.03
2023-05-19T18:54:09.028Z,3.55
2023-05-19T18:56:35.652Z,3.33
2023-05-19T18:59:02.087Z,2.70
2023-05-19T19:01:28.731Z,2.30
2023-05-19T19:03:55.271Z,2.97
2023-05-19T19:06:23.025Z,2.67
2023-05-19T19:08:49.770Z,2.80
2023-05-19T19:11:16.215Z,2.65
2023-05-19T19:13:43.589Z,2.05
2023-05-19T19:16:10.713Z,2.13
2023-05-19T19:18:37.182Z,2.35
2023-05-19T19:21:05.688Z,2.23
2023-05-19T19:23:32.585Z,2.30
2023-05-19T19:25:59.105Z,2.55
2023-05-19T19:28:25.794Z,2.13
2023-05-19T19:30:52.274Z,2.45
2023-05-19T19:33:18.815Z,3.13
2023-05-19T19:35:46.909Z,2.35
2023-05-19T19:38:13.769Z,2.60
2023-05-19T19:40:40.238Z,2.47
2023-05-19T19:43:06.701Z,2.20
2023-05-19T19:45:34.721Z,1.90
2023-05-19T19:48:01.764Z,2.20
2023-05-19T19:50:28.395Z,2.60
2023-05-19T19:52:54.878Z,2.90
2023-05-19T19:55:21.622Z,2.72
2023-05-19T19:57:49.466Z,2.77
2023-05-19T20:00:16.601Z,2.75
2023-05-19T20:02:55.880Z,2.70
2023-05-19T20:05:29.736Z,2.85
2023-05-19T20:07:56.242Z,2.42
2023-05-19T20:10:22.715Z,2.27
2023-05-19T20:12:50.552Z,2.13
2023-05-19T20:15:17.267Z,2.60
2023-05-19T20:17:43.733Z,3.00
2023-05-19T20:20:12.271Z,2.97
2023-05-19T20:22:39.186Z,2.77
2023-05-19T20:25:06.230Z,2.90
2023-05-19T20:27:32.724Z,3.13
2023-05-19T20:29:59.150Z,3.28
2023-05-19T20:32:25.649Z,4.13
2023-05-19T20:34:52.168Z,3.00
2023-05-19T20:37:18.596Z,2.92
2023-05-19T20:39:45.075Z,2.95
2023-05-19T20:42:11.522Z,4.30
2023-05-19T20:44:37.969Z,3.35
2023-05-19T20:47:04.834Z,3.27
2023-05-19T20:49:31.244Z,3.83
2023-05-19T20:51:57.711Z,3.80
2023-05-19T20:54:24.158Z,3.53
2023-05-19T20:56:51.701Z,3.30
2023-05-19T20:59:18.248Z,2.90
2023-05-19T21:01:45.962Z,4.07
2023-05-19T21:04:12.541Z,3.47
2023-05-19T21:06:39.064Z,3.83
2023-05-19T21:09:06.837Z,4.55
2023-05-19T21:11:34.015Z,4.40
2023-05-19T21:14:06.276Z,3.80
2023-05-19T21:16:34.053Z,3.85
2023-05-19T21:19:01.794Z,3.67
2023-05-19T21:21:28.405Z,3.55
2023-05-19T21:23:54.862Z,3.90
2023-05-19T21:26:22.062Z,2.95
2023-05-19T21:28:48.631Z,3.22
2023-05-19T21:31:15.331Z,3.03
2023-05-19T21:33:41.777Z,3.55
2023-05-19T21:36:08.345Z,3.63
2023-05-19T21:38:34.836Z,3.47
2023-05-19T21:41:01.282Z,3.25
2023-05-19T21:43:27.723Z,3.05
2023-05-19T21:45:54.108Z,2.92
2023-05-19T21:48:21.422Z,3.33
2023-05-19T21:50:53.596Z,3.00
2023-05-19T21:53:20.344Z,3.50
2023-05-19T21:55:46.884Z,3.40
2023-05-19T21:58:13.361Z,3.00
2023-05-19T22:00:40.501Z,3.10
2023-05-19T22:03:07.363Z,3.10
2023-05-19T22:05:35.256Z,2.95
2023-05-19T22:08:01.904Z,3.13
2023-05-19T22:10:28.337Z,3.28
2023-05-19T22:12:54.733Z,3.00
2023-05-19T22:15:21.154Z,3.03
2023-05-19T22:17:47.650Z,2.55
2023-05-19T22:20:14.076Z,3.20
2023-05-19T22:22:40.765Z,2.95
2023-05-19T22:25:07.866Z,3.10
2023-05-19T22:27:34.283Z,3.08
2023-05-19T22:30:00.941Z,3.22
2023-05-19T22:32:27.489Z,3.15
2023-05-19T22:34:54.085Z,3.00
2023-05-19T22:37:22.785Z,3.07
2023-05-19T22:39:49.232Z,3.10
2023-05-19T22:42:15.804Z,2.92
2023-05-19T22:44:43.325Z,3.03
2023-05-19T22:47:13.430Z,3.13
2023-05-19T22:49:41.138Z,3.10
2023-05-19T22:52:09.771Z,3.33
2023-05-19T22:54:36.854Z,3.30
2023-05-19T22:57:03.662Z,2.95
2023-05-19T22:59:30.173Z,3.55
2023-05-19T23:01:56.684Z,3.20
2023-05-19T23:04:23.206Z,3.28
2023-05-19T23:06:50.061Z,3.20
2023-05-19T23:09:17.914Z,3.45
2023-05-19T23:11:44.885Z,3.15
2023-05-19T23:14:11.347Z,3.20
2023-05-19T23:16:37.861Z,3.47
2023-05-19T23:19:04.356Z,3.08
2023-05-19T23:21:32.441Z,3.55
2023-05-19T23:23:59.432Z,3.10
2023-05-19T23:26:26.923Z,3.20
2023-05-19T23:28:53.405Z,3.17
2023-05-19T23:31:20.191Z,2.92
2023-05-19T23:33:46.754Z,3.42
2023-05-19T23:36:13.480Z,3.30
2023-05-19T23:38:39.983Z,3.53
2023-05-19T23:41:06.420Z,2.95
2023-05-19T23:43:32.995Z,2.97
2023-05-19T23:46:00.219Z,2.78
2023-05-19T23:48:30.402Z,3.25
2023-05-19T23:50:59.896Z,3.33
2023-05-19T23:53:26.464Z,3.08
2023-05-19T23:55:52.941Z,3.30
2023-05-19T23:58:19.416Z,3.67
